sensor_id;sensor_type;location;lat;lon;timestamp;pressure;altitude;pressure_sealevel;temperature;humidity
68301;BME280;55146;47.468;18.806;2024-01-30T00:01:33;102387.69;;;-0.79;92.95
68301;BME280;55146;47.468;18.806;2024-01-30T00:03:58;102390.25;;;-0.77;92.65
68301;BME280;55146;47.468;18.806;2024-01-30T00:06:23;102384.84;;;-0.77;92.70
68301;BME280;55146;47.468;18.806;2024-01-30T00:08:49;102383.88;;;-0.76;92.31
68301;BME280;55146;47.468;18.806;2024-01-30T00:11:15;102387.41;;;-0.76;92.10
68301;BME280;55146;47.468;18.806;2024-01-30T00:13:41;102388.28;;;-0.75;92.00
68301;BME280;55146;47.468;18.806;2024-01-30T00:16:07;102388.28;;;-0.75;91.85
68301;BME280;55146;47.468;18.806;2024-01-30T00:18:33;102390.25;;;-0.77;91.87
68301;BME280;55146;47.468;18.806;2024-01-30T00:20:58;102390.69;;;-0.82;92.01
68301;BME280;55146;47.468;18.806;2024-01-30T00:23:23;102396.69;;;-0.88;93.32
68301;BME280;55146;47.468;18.806;2024-01-30T00:25:50;102396.66;;;-0.78;93.82
68301;BME280;55146;47.468;18.806;2024-01-30T00:28:15;102397.66;;;-0.79;93.11
68301;BME280;55146;47.468;18.806;2024-01-30T00:30:40;102405.06;;;-0.82;92.84
68301;BME280;55146;47.468;18.806;2024-01-30T00:33:06;102404.91;;;-0.80;92.59
68301;BME280;55146;47.468;18.806;2024-01-30T00:35:31;102407.59;;;-0.80;93.22
68301;BME280;55146;47.468;18.806;2024-01-30T00:37:56;102401.62;;;-0.84;93.35
68301;BME280;55146;47.468;18.806;2024-01-30T00:40:22;102408.75;;;-0.83;93.08
68301;BME280;55146;47.468;18.806;2024-01-30T00:42:47;102410.88;;;-0.86;93.13
68301;BME280;55146;47.468;18.806;2024-01-30T00:45:14;102414.16;;;-0.83;93.99
68301;BME280;55146;47.468;18.806;2024-01-30T00:47:39;102417.84;;;-0.84;93.70
68301;BME280;55146;47.468;18.806;2024-01-30T00:50:05;102412.59;;;-0.85;93.49
68301;BME280;55146;47.468;18.806;2024-01-30T00:52:31;102411.91;;;-0.87;93.09
68301;BME280;55146;47.468;18.806;2024-01-30T00:54:58;102408.47;;;-0.89;93.07
68301;BME280;55146;47.468;18.806;2024-01-30T00:57:24;102411.31;;;-0.91;92.68
68301;BME280;55146;47.468;18.806;2024-01-30T00:59:49;102419.97;;;-0.97;93.13
68301;BME280;55146;47.468;18.806;2024-01-30T01:02:14;102409.47;;;-1.00;93.30
68301;BME280;55146;47.468;18.806;2024-01-30T01:04:42;102406.78;;;-1.00;93.67
68301;BME280;55146;47.468;18.806;2024-01-30T01:07:07;102402.22;;;-0.99;93.70
68301;BME280;55146;47.468;18.806;2024-01-30T01:09:33;102399.53;;;-0.99;93.25
68301;BME280;55146;47.468;18.806;2024-01-30T01:11:58;102396.66;;;-0.98;92.68
68301;BME280;55146;47.468;18.806;2024-01-30T01:14:23;102399.66;;;-1.01;92.66
68301;BME280;55146;47.468;18.806;2024-01-30T01:16:49;102394.94;;;-0.99;92.60
68301;BME280;55146;47.468;18.806;2024-01-30T01:19:14;102390.28;;;-0.97;92.07
68301;BME280;55146;47.468;18.806;2024-01-30T01:21:40;102389.56;;;-0.99;92.22
68301;BME280;55146;47.468;18.806;2024-01-30T01:24:05;102385.00;;;-0.98;92.51
68301;BME280;55146;47.468;18.806;2024-01-30T01:26:30;102381.31;;;-0.97;92.79
68301;BME280;55146;47.468;18.806;2024-01-30T01:28:56;102380.47;;;-0.98;92.70
68301;BME280;55146;47.468;18.806;2024-01-30T01:31:21;102384.16;;;-0.99;92.74
68301;BME280;55146;47.468;18.806;2024-01-30T01:33:49;102380.31;;;-0.96;92.65
68301;BME280;55146;47.468;18.806;2024-01-30T01:36:15;102372.81;;;-0.93;92.47
68301;BME280;55146;47.468;18.806;2024-01-30T01:38:40;102377.62;;;-0.87;92.36
68301;BME280;55146;47.468;18.806;2024-01-30T01:41:05;102374.22;;;-0.89;92.17
68301;BME280;55146;47.468;18.806;2024-01-30T01:43:31;102363.69;;;-0.82;93.17
68301;BME280;55146;47.468;18.806;2024-01-30T01:45:56;102364.53;;;-0.82;94.21
68301;BME280;55146;47.468;18.806;2024-01-30T01:48:22;102369.50;;;-0.77;94.63
68301;BME280;55146;47.468;18.806;2024-01-30T01:50:47;102369.91;;;-0.72;93.99
68301;BME280;55146;47.468;18.806;2024-01-30T01:53:13;102366.34;;;-0.72;93.37
68301;BME280;55146;47.468;18.806;2024-01-30T01:55:40;102367.22;;;-0.72;93.33
68301;BME280;55146;47.468;18.806;2024-01-30T01:58:05;102361.66;;;-0.70;93.16
68301;BME280;55146;47.468;18.806;2024-01-30T02:00:34;102360.69;;;-0.69;93.41
68301;BME280;55146;47.468;18.806;2024-01-30T02:03:01;102358.66;;;-0.67;93.33
68301;BME280;55146;47.468;18.806;2024-01-30T02:05:27;102367.34;;;-0.64;93.52
68301;BME280;55146;47.468;18.806;2024-01-30T02:07:53;102361.94;;;-0.64;93.67
68301;BME280;55146;47.468;18.806;2024-01-30T02:10:19;102356.41;;;-0.62;93.62
68301;BME280;55146;47.468;18.806;2024-01-30T02:12:44;102358.06;;;-0.61;94.22
68301;BME280;55146;47.468;18.806;2024-01-30T02:15:13;102357.66;;;-0.57;93.93
68301;BME280;55146;47.468;18.806;2024-01-30T02:17:38;102357.22;;;-0.52;93.78
68301;BME280;55146;47.468;18.806;2024-01-30T02:20:04;102359.06;;;-0.53;93.34
68301;BME280;55146;47.468;18.806;2024-01-30T02:22:32;102354.81;;;-0.65;93.30
68301;BME280;55146;47.468;18.806;2024-01-30T02:24:58;102358.25;;;-0.72;93.39
68301;BME280;55146;47.468;18.806;2024-01-30T02:27:24;102360.69;;;-0.69;93.85
68301;BME280;55146;47.468;18.806;2024-01-30T02:29:49;102360.69;;;-0.69;93.68
68301;BME280;55146;47.468;18.806;2024-01-30T02:32:14;102352.00;;;-0.73;93.73
68301;BME280;55146;47.468;18.806;2024-01-30T02:34:40;102355.13;;;-0.77;93.73
68301;BME280;55146;47.468;18.806;2024-01-30T02:37:05;102359.81;;;-0.79;93.66
68301;BME280;55146;47.468;18.806;2024-01-30T02:39:31;102358.13;;;-0.90;94.36
68301;BME280;55146;47.468;18.806;2024-01-30T02:41:56;102355.00;;;-0.86;94.75
68301;BME280;55146;47.468;18.806;2024-01-30T02:44:22;102357.28;;;-0.91;93.91
68301;BME280;55146;47.468;18.806;2024-01-30T02:46:47;102355.47;;;-1.00;94.11
68301;BME280;55146;47.468;18.806;2024-01-30T02:49:12;102356.88;;;-1.05;94.36
68301;BME280;55146;47.468;18.806;2024-01-30T02:51:38;102357.88;;;-1.06;94.23
68301;BME280;55146;47.468;18.806;2024-01-30T02:54:03;102357.72;;;-1.14;94.40
68301;BME280;55146;47.468;18.806;2024-01-30T02:56:28;102351.91;;;-1.19;94.34
68301;BME280;55146;47.468;18.806;2024-01-30T02:58:54;102351.91;;;-1.19;94.65
68301;BME280;55146;47.468;18.806;2024-01-30T03:01:19;102360.88;;;-1.19;94.34
68301;BME280;55146;47.468;18.806;2024-01-30T03:03:45;102358.87;;;-1.27;93.92
68301;BME280;55146;47.468;18.806;2024-01-30T03:06:10;102353.34;;;-1.25;94.62
68301;BME280;55146;47.468;18.806;2024-01-30T03:08:35;102369.53;;;-1.25;94.70
68301;BME280;55146;47.468;18.806;2024-01-30T03:11:01;102366.41;;;-1.30;94.21
68301;BME280;55146;47.468;18.806;2024-01-30T03:13:26;102364.56;;;-1.30;94.67
68301;BME280;55146;47.468;18.806;2024-01-30T03:15:52;102375.63;;;-1.33;94.37
68301;BME280;55146;47.468;18.806;2024-01-30T03:18:17;102372.81;;;-1.31;94.58
68301;BME280;55146;47.468;18.806;2024-01-30T03:20:43;102372.81;;;-1.31;94.70
68301;BME280;55146;47.468;18.806;2024-01-30T03:23:08;102374.34;;;-1.29;94.76
68301;BME280;55146;47.468;18.806;2024-01-30T03:25:33;102372.81;;;-1.31;94.02
68301;BME280;55146;47.468;18.806;2024-01-30T03:27:59;102364.28;;;-1.27;94.33
68301;BME280;55146;47.468;18.806;2024-01-30T03:30:24;102359.31;;;-1.31;94.00
68301;BME280;55146;47.468;18.806;2024-01-30T03:32:49;102372.06;;;-1.33;93.80
68301;BME280;55146;47.468;18.806;2024-01-30T03:35:15;102359.00;;;-1.38;93.77
68301;BME280;55146;47.468;18.806;2024-01-30T03:37:41;102359.00;;;-1.38;94.40
68301;BME280;55146;47.468;18.806;2024-01-30T03:40:06;102353.62;;;-1.38;94.30
68301;BME280;55146;47.468;18.806;2024-01-30T03:42:32;102350.78;;;-1.36;94.25
68301;BME280;55146;47.468;18.806;2024-01-30T03:44:57;102355.31;;;-1.37;93.96
68301;BME280;55146;47.468;18.806;2024-01-30T03:47:23;102355.87;;;-1.33;93.79
68301;BME280;55146;47.468;18.806;2024-01-30T03:49:48;102350.78;;;-1.36;93.51
68301;BME280;55146;47.468;18.806;2024-01-30T03:52:13;102350.31;;;-1.41;93.99
68301;BME280;55146;47.468;18.806;2024-01-30T03:54:39;102346.78;;;-1.42;94.35
68301;BME280;55146;47.468;18.806;2024-01-30T03:57:04;102346.38;;;-1.37;94.21
68301;BME280;55146;47.468;18.806;2024-01-30T03:59:30;102345.66;;;-1.39;93.36
68301;BME280;55146;47.468;18.806;2024-01-30T04:01:56;102350.91;;;-1.38;93.54
68301;BME280;55146;47.468;18.806;2024-01-30T04:04:21;102351.91;;;-1.39;93.40
68301;BME280;55146;47.468;18.806;2024-01-30T04:06:46;102343.66;;;-1.47;93.34
68301;BME280;55146;47.468;18.806;2024-01-30T04:09:12;102345.94;;;-1.42;93.56
68301;BME280;55146;47.468;18.806;2024-01-30T04:11:39;102341.38;;;-1.42;93.27
68301;BME280;55146;47.468;18.806;2024-01-30T04:14:05;102340.09;;;-1.47;92.91
68301;BME280;55146;47.468;18.806;2024-01-30T04:16:30;102343.34;;;-1.53;92.92
68301;BME280;55146;47.468;18.806;2024-01-30T04:18:55;102336.13;;;-1.62;93.49
68301;BME280;55146;47.468;18.806;2024-01-30T04:21:21;102337.97;;;-1.63;93.82
68301;BME280;55146;47.468;18.806;2024-01-30T04:23:47;102339.94;;;-1.65;94.03
68301;BME280;55146;47.468;18.806;2024-01-30T04:26:13;102345.50;;;-1.57;94.16
68301;BME280;55146;47.468;18.806;2024-01-30T04:28:40;102334.84;;;-1.58;93.60
68301;BME280;55146;47.468;18.806;2024-01-30T04:31:06;102337.53;;;-1.58;93.19
68301;BME280;55146;47.468;18.806;2024-01-30T04:33:31;102345.06;;;-1.62;92.79
68301;BME280;55146;47.468;18.806;2024-01-30T04:35:56;102339.66;;;-1.62;93.15
68301;BME280;55146;47.468;18.806;2024-01-30T04:38:22;102342.94;;;-1.58;93.61
68301;BME280;55146;47.468;18.806;2024-01-30T04:40:47;102343.22;;;-1.61;93.03
68301;BME280;55146;47.468;18.806;2024-01-30T04:43:12;102347.91;;;-1.64;93.25
68301;BME280;55146;47.468;18.806;2024-01-30T04:45:37;102351.16;;;-1.70;93.08
68301;BME280;55146;47.468;18.806;2024-01-30T04:48:03;102348.03;;;-1.75;93.01
68301;BME280;55146;47.468;18.806;2024-01-30T04:50:28;102351.56;;;-1.74;93.27
68301;BME280;55146;47.468;18.806;2024-01-30T04:53:12;102349.28;;;-1.79;93.40
68301;BME280;55146;47.468;18.806;2024-01-30T04:55:38;102355.97;;;-1.73;93.91
68301;BME280;55146;47.468;18.806;2024-01-30T04:58:03;102349.28;;;-1.79;93.32
68301;BME280;55146;47.468;18.806;2024-01-30T05:00:29;102352.41;;;-1.83;93.27
68301;BME280;55146;47.468;18.806;2024-01-30T05:02:57;102354.53;;;-1.87;93.00
68301;BME280;55146;47.468;18.806;2024-01-30T05:05:22;102361.47;;;-1.84;93.42
68301;BME280;55146;47.468;18.806;2024-01-30T05:07:48;102359.47;;;-1.92;93.94
68301;BME280;55146;47.468;18.806;2024-01-30T05:10:13;102362.50;;;-1.85;94.25
68301;BME280;55146;47.468;18.806;2024-01-30T05:12:39;102369.25;;;-1.91;93.73
68301;BME280;55146;47.468;18.806;2024-01-30T05:15:05;102372.13;;;-1.92;93.46
68301;BME280;55146;47.468;18.806;2024-01-30T05:17:31;102379.06;;;-1.90;93.70
68301;BME280;55146;47.468;18.806;2024-01-30T05:19:56;102377.50;;;-1.92;93.59
68301;BME280;55146;47.468;18.806;2024-01-30T05:22:22;102384.06;;;-1.85;93.79
68301;BME280;55146;47.468;18.806;2024-01-30T05:24:47;102386.75;;;-1.85;93.28
68301;BME280;55146;47.468;18.806;2024-01-30T05:27:13;102381.31;;;-1.95;93.35
68301;BME280;55146;47.468;18.806;2024-01-30T05:29:40;102384.88;;;-1.94;93.16
68301;BME280;55146;47.468;18.806;2024-01-30T05:32:06;102383.88;;;-1.93;93.26
68301;BME280;55146;47.468;18.806;2024-01-30T05:34:32;102385.84;;;-1.95;93.30
68301;BME280;55146;47.468;18.806;2024-01-30T05:36:58;102385.72;;;-1.94;92.91
68301;BME280;55146;47.468;18.806;2024-01-30T05:39:23;102387.81;;;-1.97;92.84
68301;BME280;55146;47.468;18.806;2024-01-30T05:41:48;102386.53;;;-2.03;93.10
68301;BME280;55146;47.468;18.806;2024-01-30T05:44:14;102388.53;;;-2.05;93.14
68301;BME280;55146;47.468;18.806;2024-01-30T05:46:39;102383.56;;;-2.00;93.04
68301;BME280;55146;47.468;18.806;2024-01-30T05:49:04;102388.38;;;-2.04;92.72
68301;BME280;55146;47.468;18.806;2024-01-30T05:51:30;102396.19;;;-2.10;93.18
68301;BME280;55146;47.468;18.806;2024-01-30T05:53:55;102386.37;;;-2.11;92.92
68301;BME280;55146;47.468;18.806;2024-01-30T05:56:20;102386.94;;;-2.08;93.01
68301;BME280;55146;47.468;18.806;2024-01-30T05:58:46;102382.37;;;-2.17;92.73
68301;BME280;55146;47.468;18.806;2024-01-30T06:01:11;102388.47;;;-2.15;93.19
68301;BME280;55146;47.468;18.806;2024-01-30T06:03:37;102385.19;;;-2.18;93.26
68301;BME280;55146;47.468;18.806;2024-01-30T06:06:04;102388.03;;;-2.20;93.62
68301;BME280;55146;47.468;18.806;2024-01-30T06:08:29;102383.91;;;-2.24;93.19
68301;BME280;55146;47.468;18.806;2024-01-30T06:10:54;102381.91;;;-2.22;93.46
68301;BME280;55146;47.468;18.806;2024-01-30T06:13:20;102382.63;;;-2.20;93.31
68301;BME280;55146;47.468;18.806;2024-01-30T06:15:45;102381.78;;;-2.20;92.89
68301;BME280;55146;47.468;18.806;2024-01-30T06:18:10;102386.47;;;-2.22;92.74
68301;BME280;55146;47.468;18.806;2024-01-30T06:20:36;102384.47;;;-2.20;92.72
68301;BME280;55146;47.468;18.806;2024-01-30T06:23:01;102386.31;;;-2.21;92.59
68301;BME280;55146;47.468;18.806;2024-01-30T06:25:27;102388.63;;;-2.16;92.52
68301;BME280;55146;47.468;18.806;2024-01-30T06:27:52;102391.31;;;-2.16;92.35
68301;BME280;55146;47.468;18.806;2024-01-30T06:30:18;102390.78;;;-2.10;92.35
68301;BME280;55146;47.468;18.806;2024-01-30T06:32:43;102391.44;;;-2.18;92.23
68301;BME280;55146;47.468;18.806;2024-01-30T06:35:09;102396.84;;;-2.18;92.97
68301;BME280;55146;47.468;18.806;2024-01-30T06:37:36;102399.00;;;-2.12;93.47
68301;BME280;55146;47.468;18.806;2024-01-30T06:40:01;102396.31;;;-2.12;92.91
68301;BME280;55146;47.468;18.806;2024-01-30T06:42:26;102399.41;;;-2.16;92.56
68301;BME280;55146;47.468;18.806;2024-01-30T06:44:52;102403.22;;;-2.19;93.05
68301;BME280;55146;47.468;18.806;2024-01-30T06:47:17;102400.56;;;-2.09;93.58
68301;BME280;55146;47.468;18.806;2024-01-30T06:49:42;102406.66;;;-2.07;93.20
68301;BME280;55146;47.468;18.806;2024-01-30T06:52:09;102403.97;;;-2.07;93.36
68301;BME280;55146;47.468;18.806;2024-01-30T06:54:34;102400.06;;;-1.93;93.85
68301;BME280;55146;47.468;18.806;2024-01-30T06:57:00;102404.66;;;-1.75;93.64
68301;BME280;55146;47.468;18.806;2024-01-30T06:59:25;102409.97;;;-1.54;92.86
68301;BME280;55146;47.468;18.806;2024-01-30T07:01:51;102411.66;;;-1.53;92.22
68301;BME280;55146;47.468;18.806;2024-01-30T07:04:16;102400.19;;;-1.36;92.11
68301;BME280;55146;47.468;18.806;2024-01-30T07:06:43;102403.22;;;-1.19;91.51
68301;BME280;55146;47.468;18.806;2024-01-30T07:09:08;102405.22;;;-1.12;90.45
68301;BME280;55146;47.468;18.806;2024-01-30T07:11:34;102406.50;;;-1.06;90.32
68301;BME280;55146;47.468;18.806;2024-01-30T07:13:59;102413.31;;;-0.93;90.22
68301;BME280;55146;47.468;18.806;2024-01-30T07:16:25;102416.28;;;-0.76;90.36
68301;BME280;55146;47.468;18.806;2024-01-30T07:18:50;102406.63;;;-0.69;89.44
68301;BME280;55146;47.468;18.806;2024-01-30T07:21:15;102405.72;;;-0.60;89.60
68301;BME280;55146;47.468;18.806;2024-01-30T07:23:41;102401.00;;;-0.39;89.01
68301;BME280;55146;47.468;18.806;2024-01-30T07:26:07;102405.66;;;-0.22;88.59
68301;BME280;55146;47.468;18.806;2024-01-30T07:28:33;102402.63;;;-0.09;89.39
68301;BME280;55146;47.468;18.806;2024-01-30T07:30:59;102399.97;;;0.09;88.16
68301;BME280;55146;47.468;18.806;2024-01-30T07:33:24;102390.19;;;0.25;87.63
68301;BME280;55146;47.468;18.806;2024-01-30T07:35:51;102396.06;;;0.48;86.39
68301;BME280;55146;47.468;18.806;2024-01-30T07:38:17;102394.62;;;0.71;85.37
68301;BME280;55146;47.468;18.806;2024-01-30T07:40:42;102389.69;;;0.85;86.53
68301;BME280;55146;47.468;18.806;2024-01-30T07:43:07;102385.41;;;1.00;86.93
68301;BME280;55146;47.468;18.806;2024-01-30T07:45:33;102381.12;;;1.33;86.44
68301;BME280;55146;47.468;18.806;2024-01-30T07:47:59;102386.78;;;1.65;84.85
68301;BME280;55146;47.468;18.806;2024-01-30T07:50:27;102377.25;;;1.87;84.07
68301;BME280;55146;47.468;18.806;2024-01-30T07:52:52;102388.91;;;2.13;84.84
68301;BME280;55146;47.468;18.806;2024-01-30T07:55:23;102385.44;;;2.37;85.28
68301;BME280;55146;47.468;18.806;2024-01-30T07:57:56;102380.75;;;2.55;84.69
68301;BME280;55146;47.468;18.806;2024-01-30T08:00:22;102385.66;;;2.60;85.11
68301;BME280;55146;47.468;18.806;2024-01-30T08:02:47;102383.16;;;2.66;84.71
68301;BME280;55146;47.468;18.806;2024-01-30T08:05:13;102386.91;;;2.73;84.84
68301;BME280;55146;47.468;18.806;2024-01-30T08:07:43;102385.06;;;2.90;84.31
68301;BME280;55146;47.468;18.806;2024-01-30T08:10:10;102393.56;;;3.03;83.63
68301;BME280;55146;47.468;18.806;2024-01-30T08:12:36;102385.09;;;3.14;83.48
68301;BME280;55146;47.468;18.806;2024-01-30T08:15:02;102394.09;;;3.23;82.76
68301;BME280;55146;47.468;18.806;2024-01-30T08:17:28;102390.00;;;3.35;82.48
68301;BME280;55146;47.468;18.806;2024-01-30T08:19:53;102390.69;;;3.37;82.18
68301;BME280;55146;47.468;18.806;2024-01-30T08:22:19;102392.91;;;3.42;81.93
68301;BME280;55146;47.468;18.806;2024-01-30T08:24:44;102398.69;;;3.39;81.98
68301;BME280;55146;47.468;18.806;2024-01-30T08:27:09;102398.69;;;3.39;82.05
68301;BME280;55146;47.468;18.806;2024-01-30T08:29:38;102396.47;;;3.42;83.41
68301;BME280;55146;47.468;18.806;2024-01-30T08:32:05;102401.88;;;3.66;80.90
68301;BME280;55146;47.468;18.806;2024-01-30T08:34:31;102408.03;;;3.60;80.96
68301;BME280;55146;47.468;18.806;2024-01-30T08:36:56;102408.53;;;3.64;80.22
68301;BME280;55146;47.468;18.806;2024-01-30T08:39:21;102402.41;;;3.54;81.63
68301;BME280;55146;47.468;18.806;2024-01-30T08:41:47;102400.88;;;3.76;81.21
68301;BME280;55146;47.468;18.806;2024-01-30T08:44:12;102405.94;;;3.87;79.58
68301;BME280;55146;47.468;18.806;2024-01-30T08:46:37;102410.69;;;3.85;80.12
68301;BME280;55146;47.468;18.806;2024-01-30T08:49:03;102410.91;;;3.59;80.45
68301;BME280;55146;47.468;18.806;2024-01-30T08:51:31;102403.75;;;3.74;80.72
68301;BME280;55146;47.468;18.806;2024-01-30T08:53:56;102400.50;;;3.79;80.97
68301;BME280;55146;47.468;18.806;2024-01-30T08:56:22;102399.75;;;4.09;80.66
68301;BME280;55146;47.468;18.806;2024-01-30T08:58:47;102401.44;;;4.18;79.32
68301;BME280;55146;47.468;18.806;2024-01-30T09:01:12;102403.31;;;4.18;79.46
68301;BME280;55146;47.468;18.806;2024-01-30T09:03:39;102403.34;;;4.01;79.49
68301;BME280;55146;47.468;18.806;2024-01-30T09:06:15;102409.16;;;3.90;81.83
68301;BME280;55146;47.468;18.806;2024-01-30T09:08:40;102403.63;;;4.23;81.54
68301;BME280;55146;47.468;18.806;2024-01-30T09:11:12;102402.91;;;4.29;79.21
68301;BME280;55146;47.468;18.806;2024-01-30T09:13:38;102402.44;;;4.17;79.89
68301;BME280;55146;47.468;18.806;2024-01-30T09:16:04;102404.59;;;4.38;80.26
68301;BME280;55146;47.468;18.806;2024-01-30T09:18:29;102407.62;;;4.43;78.97
68301;BME280;55146;47.468;18.806;2024-01-30T09:20:55;102394.47;;;4.55;79.87
68301;BME280;55146;47.468;18.806;2024-01-30T09:23:20;102396.22;;;4.70;78.93
68301;BME280;55146;47.468;18.806;2024-01-30T09:25:45;102400.75;;;4.86;78.27
68301;BME280;55146;47.468;18.806;2024-01-30T09:28:11;102394.69;;;4.99;79.38
68301;BME280;55146;47.468;18.806;2024-01-30T09:30:36;102401.59;;;5.09;78.55
68301;BME280;55146;47.468;18.806;2024-01-30T09:33:02;102390.56;;;5.25;76.68
68301;BME280;55146;47.468;18.806;2024-01-30T09:35:27;102395.22;;;5.40;77.66
68301;BME280;55146;47.468;18.806;2024-01-30T09:37:52;102391.31;;;5.57;75.91
68301;BME280;55146;47.468;18.806;2024-01-30T09:40:18;102391.06;;;5.29;76.58
68301;BME280;55146;47.468;18.806;2024-01-30T09:42:46;102385.81;;;5.42;78.30
68301;BME280;55146;47.468;18.806;2024-01-30T09:45:13;102390.09;;;5.74;76.40
68301;BME280;55146;47.468;18.806;2024-01-30T09:47:43;102386.91;;;5.70;75.44
68301;BME280;55146;47.468;18.806;2024-01-30T09:50:11;102387.50;;;5.43;75.95
68301;BME280;55146;47.468;18.806;2024-01-30T09:52:36;102386.06;;;5.33;77.65
68301;BME280;55146;47.468;18.806;2024-01-30T09:55:03;102377.47;;;5.58;76.82
68301;BME280;55146;47.468;18.806;2024-01-30T09:57:28;102390.66;;;5.92;77.68
68301;BME280;55146;47.468;18.806;2024-01-30T09:59:54;102383.28;;;6.37;74.78
68301;BME280;55146;47.468;18.806;2024-01-30T10:02:20;102381.28;;;6.60;73.86
68301;BME280;55146;47.468;18.806;2024-01-30T10:04:50;102388.00;;;6.79;72.47
68301;BME280;55146;47.468;18.806;2024-01-30T10:07:19;102382.00;;;6.69;72.29
68301;BME280;55146;47.468;18.806;2024-01-30T10:09:45;102383.06;;;6.89;73.49
68301;BME280;55146;47.468;18.806;2024-01-30T10:12:11;102379.37;;;6.97;72.32
68301;BME280;55146;47.468;18.806;2024-01-30T10:14:41;102379.31;;;6.90;71.81
68301;BME280;55146;47.468;18.806;2024-01-30T10:17:11;102377.44;;;6.76;72.88
68301;BME280;55146;47.468;18.806;2024-01-30T10:19:38;102383.53;;;6.57;72.75
68301;BME280;55146;47.468;18.806;2024-01-30T10:22:04;102377.88;;;6.43;73.92
68301;BME280;55146;47.468;18.806;2024-01-30T10:24:29;102374.22;;;6.51;74.31
68301;BME280;55146;47.468;18.806;2024-01-30T10:26:55;102381.53;;;6.65;72.86
68301;BME280;55146;47.468;18.806;2024-01-30T10:29:20;102376.75;;;6.53;73.29
68301;BME280;55146;47.468;18.806;2024-01-30T10:31:46;102375.37;;;6.27;73.94
68301;BME280;55146;47.468;18.806;2024-01-30T10:34:12;102372.91;;;6.18;75.65
68301;BME280;55146;47.468;18.806;2024-01-30T10:36:43;102367.03;;;6.50;74.51
68301;BME280;55146;47.468;18.806;2024-01-30T10:39:15;102366.63;;;6.68;73.40
68301;BME280;55146;47.468;18.806;2024-01-30T10:41:47;102365.13;;;6.65;73.44
68301;BME280;55146;47.468;18.806;2024-01-30T10:44:17;102369.41;;;6.38;73.17
68301;BME280;55146;47.468;18.806;2024-01-30T10:46:45;102363.19;;;6.30;74.79
68301;BME280;55146;47.468;18.806;2024-01-30T10:49:14;102358.31;;;6.25;74.30
68301;BME280;55146;47.468;18.806;2024-01-30T10:51:40;102351.38;;;6.08;75.18
68301;BME280;55146;47.468;18.806;2024-01-30T10:54:08;102356.53;;;6.32;75.70
68301;BME280;55146;47.468;18.806;2024-01-30T10:56:34;102343.44;;;6.64;74.50
68301;BME280;55146;47.468;18.806;2024-01-30T10:59:01;102346.16;;;6.28;74.72
68301;BME280;55146;47.468;18.806;2024-01-30T11:01:27;102343.16;;;6.23;75.01
68301;BME280;55146;47.468;18.806;2024-01-30T11:03:53;102338.37;;;6.10;75.82
68301;BME280;55146;47.468;18.806;2024-01-30T11:06:23;102333.91;;;6.24;75.60
68301;BME280;55146;47.468;18.806;2024-01-30T11:09:05;102333.19;;;6.15;75.53
68301;BME280;55146;47.468;18.806;2024-01-30T11:11:57;102330.97;;;5.81;76.73
68301;BME280;55146;47.468;18.806;2024-01-30T11:14:27;102330.69;;;5.76;77.64
68301;BME280;55146;47.468;18.806;2024-01-30T11:16:57;102324.34;;;5.98;77.15
68301;BME280;55146;47.468;18.806;2024-01-30T11:19:24;102320.56;;;6.14;76.18
68301;BME280;55146;47.468;18.806;2024-01-30T11:21:53;102316.97;;;6.28;75.87
68301;BME280;55146;47.468;18.806;2024-01-30T11:24:20;102317.91;;;6.21;76.39
68301;BME280;55146;47.468;18.806;2024-01-30T11:26:49;102309.56;;;6.43;74.72
68301;BME280;55146;47.468;18.806;2024-01-30T11:29:18;102315.25;;;6.27;74.30
68301;BME280;55146;47.468;18.806;2024-01-30T11:31:57;102313.69;;;6.03;75.43
68301;BME280;55146;47.468;18.806;2024-01-30T11:34:24;102310.66;;;5.84;76.43
68301;BME280;55146;47.468;18.806;2024-01-30T11:36:57;102309.72;;;5.77;77.38
68301;BME280;55146;47.468;18.806;2024-01-30T11:39:27;102304.69;;;6.24;76.19
68301;BME280;55146;47.468;18.806;2024-01-30T11:41:52;102302.50;;;6.70;74.45
68301;BME280;55146;47.468;18.806;2024-01-30T11:44:22;102308.00;;;7.19;73.46
68301;BME280;55146;47.468;18.806;2024-01-30T11:46:48;102306.84;;;7.35;70.62
68301;BME280;55146;47.468;18.806;2024-01-30T11:49:14;102307.94;;;7.34;70.12
68301;BME280;55146;47.468;18.806;2024-01-30T11:51:41;102305.66;;;7.16;70.40
68301;BME280;55146;47.468;18.806;2024-01-30T11:54:07;102303.94;;;7.09;70.79
68301;BME280;55146;47.468;18.806;2024-01-30T11:56:33;102302.16;;;6.80;71.96
68301;BME280;55146;47.468;18.806;2024-01-30T11:58:58;102301.31;;;6.79;72.11
68301;BME280;55146;47.468;18.806;2024-01-30T12:01:26;102293.47;;;6.55;72.19
68301;BME280;55146;47.468;18.806;2024-01-30T12:03:51;102285.56;;;6.60;72.81
68301;BME280;55146;47.468;18.806;2024-01-30T12:06:17;102282.88;;;6.67;72.18
68301;BME280;55146;47.468;18.806;2024-01-30T12:08:42;102285.97;;;6.42;72.63
68301;BME280;55146;47.468;18.806;2024-01-30T12:11:09;102276.34;;;6.25;73.75
68301;BME280;55146;47.468;18.806;2024-01-30T12:13:34;102283.16;;;6.00;74.71
68301;BME280;55146;47.468;18.806;2024-01-30T12:16:00;102271.22;;;5.86;75.75
68301;BME280;55146;47.468;18.806;2024-01-30T12:18:26;102274.25;;;5.91;75.54
68301;BME280;55146;47.468;18.806;2024-01-30T12:20:59;102276.56;;;5.94;76.48
68301;BME280;55146;47.468;18.806;2024-01-30T12:23:28;102267.44;;;6.02;77.08
68301;BME280;55146;47.468;18.806;2024-01-30T12:25:53;102267.03;;;6.20;76.25
68301;BME280;55146;47.468;18.806;2024-01-30T12:28:20;102271.97;;;6.31;75.11
68301;BME280;55146;47.468;18.806;2024-01-30T12:30:46;102266.66;;;6.44;73.71
68301;BME280;55146;47.468;18.806;2024-01-30T12:33:16;102265.41;;;6.25;74.62
68301;BME280;55146;47.468;18.806;2024-01-30T12:35:46;102265.41;;;6.25;74.83
68301;BME280;55146;47.468;18.806;2024-01-30T12:38:11;102261.13;;;6.37;74.48